sensor_id;sensor_type;location;lat;lon;timestamp;P1;durP1;ratioP1;P2;durP2;ratioP2
8421;SDS011;4248;48.196;10.924;2022-08-24T00:00:14;11.80;;;8.70;;
8421;SDS011;4248;48.196;10.924;2022-08-24T00:02:43;10.00;;;7.90;;
8421;SDS011;4248;48.196;10.924;2022-08-24T00:05:10;18.53;;;8.10;;
8421;SDS011;4248;48.196;10.924;2022-08-24T00:07:36;14.63;;;8.50;;
8421;SDS011;4248;48.196;10.924;2022-08-24T00:10:03;13.97;;;8.43;;
8421;SDS011;4248;48.196;10.924;2022-08-24T00:12:32;11.97;;;7.93;;
8421;SDS011;4248;48.196;10.924;2022-08-24T00:14:58;16.40;;;7.97;;
8421;SDS011;4248;48.196;10.924;2022-08-24T00:17:24;12.37;;;8.73;;
8421;SDS011;4248;48.196;10.924;2022-08-24T00:19:49;26.73;;;8.20;;
8421;SDS011;4248;48.196;10.924;2022-08-24T00:22:16;11.47;;;9.10;;
8421;SDS011;4248;48.196;10.924;2022-08-24T00:24:42;12.90;;;8.40;;
8421;SDS011;4248;48.196;10.924;2022-08-24T00:27:08;14.17;;;8.60;;
8421;SDS011;4248;48.196;10.924;2022-08-24T00:29:35;13.13;;;8.83;;
8421;SDS011;4248;48.196;10.924;2022-08-24T00:32:00;14.80;;;8.97;;
8421;SDS011;4248;48.196;10.924;2022-08-24T00:34:26;13.70;;;8.80;;
8421;SDS011;4248;48.196;10.924;2022-08-24T00:36:53;12.77;;;8.30;;
8421;SDS011;4248;48.196;10.924;2022-08-24T00:39:19;11.07;;;7.73;;
8421;SDS011;4248;48.196;10.924;2022-08-24T00:41:46;10.20;;;7.00;;
8421;SDS011;4248;48.196;10.924;2022-08-24T00:44:14;12.60;;;8.20;;
8421;SDS011;4248;48.196;10.924;2022-08-24T00:49:17;14.60;;;6.70;;
8421;SDS011;4248;48.196;10.924;2022-08-24T00:51:53;13.10;;;7.40;;
8421;SDS011;4248;48.196;10.924;2022-08-24T00:54:29;18.43;;;6.83;;
8421;SDS011;4248;48.196;10.924;2022-08-24T00:56:58;11.33;;;6.87;;
8421;SDS011;4248;48.196;10.924;2022-08-24T00:59:28;8.70;;;6.80;;
8421;SDS011;4248;48.196;10.924;2022-08-24T01:01:58;11.83;;;8.40;;
8421;SDS011;4248;48.196;10.924;2022-08-24T01:04:31;11.20;;;8.53;;
8421;SDS011;4248;48.196;10.924;2022-08-24T01:07:04;10.70;;;7.87;;
8421;SDS011;4248;48.196;10.924;2022-08-24T01:09:30;10.80;;;8.43;;
8421;SDS011;4248;48.196;10.924;2022-08-24T01:11:55;10.93;;;8.50;;
8421;SDS011;4248;48.196;10.924;2022-08-24T01:14:22;12.70;;;9.57;;
8421;SDS011;4248;48.196;10.924;2022-08-24T01:16:48;14.13;;;9.37;;
8421;SDS011;4248;48.196;10.924;2022-08-24T01:19:43;12.77;;;9.60;;
8421;SDS011;4248;48.196;10.924;2022-08-24T01:22:21;12.20;;;8.80;;
8421;SDS011;4248;48.196;10.924;2022-08-24T01:25:08;14.53;;;7.87;;
8421;SDS011;4248;48.196;10.924;2022-08-24T01:27:34;11.87;;;8.67;;
8421;SDS011;4248;48.196;10.924;2022-08-24T01:30:02;14.27;;;8.07;;
8421;SDS011;4248;48.196;10.924;2022-08-24T01:32:30;12.60;;;8.60;;
8421;SDS011;4248;48.196;10.924;2022-08-24T01:34:56;14.30;;;9.23;;
8421;SDS011;4248;48.196;10.924;2022-08-24T01:37:22;12.40;;;8.87;;
8421;SDS011;4248;48.196;10.924;2022-08-24T01:39:49;17.30;;;8.83;;
8421;SDS011;4248;48.196;10.924;2022-08-24T01:42:18;18.07;;;8.47;;
8421;SDS011;4248;48.196;10.924;2022-08-24T01:44:44;15.77;;;9.13;;
8421;SDS011;4248;48.196;10.924;2022-08-24T01:47:10;15.10;;;7.80;;
8421;SDS011;4248;48.196;10.924;2022-08-24T01:49:39;11.47;;;6.70;;
8421;SDS011;4248;48.196;10.924;2022-08-24T01:52:08;11.27;;;7.53;;
8421;SDS011;4248;48.196;10.924;2022-08-24T01:54:36;9.10;;;6.47;;
8421;SDS011;4248;48.196;10.924;2022-08-24T01:57:03;11.90;;;7.10;;
8421;SDS011;4248;48.196;10.924;2022-08-24T01:59:30;8.23;;;6.20;;
8421;SDS011;4248;48.196;10.924;2022-08-24T02:01:58;9.50;;;7.00;;
8421;SDS011;4248;48.196;10.924;2022-08-24T02:04:32;11.40;;;7.17;;
8421;SDS011;4248;48.196;10.924;2022-08-24T02:06:58;16.20;;;8.00;;
8421;SDS011;4248;48.196;10.924;2022-08-24T02:09:24;16.13;;;8.00;;
8421;SDS011;4248;48.196;10.924;2022-08-24T02:11:50;13.90;;;8.43;;
8421;SDS011;4248;48.196;10.924;2022-08-24T02:14:15;9.57;;;7.47;;
8421;SDS011;4248;48.196;10.924;2022-08-24T02:16:43;11.80;;;7.67;;
8421;SDS011;4248;48.196;10.924;2022-08-24T02:19:09;9.93;;;7.93;;
8421;SDS011;4248;48.196;10.924;2022-08-24T02:21:34;11.37;;;7.20;;
8421;SDS011;4248;48.196;10.924;2022-08-24T02:24:00;8.80;;;7.23;;
8421;SDS011;4248;48.196;10.924;2022-08-24T02:26:26;13.63;;;7.60;;
8421;SDS011;4248;48.196;10.924;2022-08-24T02:28:52;16.63;;;8.30;;
8421;SDS011;4248;48.196;10.924;2022-08-24T02:31:18;11.07;;;7.60;;
8421;SDS011;4248;48.196;10.924;2022-08-24T02:33:44;11.27;;;8.27;;
8421;SDS011;4248;48.196;10.924;2022-08-24T02:36:10;11.50;;;7.97;;
8421;SDS011;4248;48.196;10.924;2022-08-24T02:38:37;15.90;;;8.37;;
8421;SDS011;4248;48.196;10.924;2022-08-24T02:41:04;14.80;;;8.50;;
8421;SDS011;4248;48.196;10.924;2022-08-24T02:43:30;13.47;;;8.03;;
8421;SDS011;4248;48.196;10.924;2022-08-24T02:45:55;11.93;;;8.27;;
8421;SDS011;4248;48.196;10.924;2022-08-24T02:48:21;10.50;;;7.50;;
8421;SDS011;4248;48.196;10.924;2022-08-24T02:50:48;13.60;;;7.73;;
8421;SDS011;4248;48.196;10.924;2022-08-24T02:53:16;17.03;;;8.33;;
8421;SDS011;4248;48.196;10.924;2022-08-24T02:55:43;14.80;;;7.30;;
8421;SDS011;4248;48.196;10.924;2022-08-24T02:58:10;9.83;;;7.30;;
8421;SDS011;4248;48.196;10.924;2022-08-24T03:00:37;12.43;;;8.50;;
8421;SDS011;4248;48.196;10.924;2022-08-24T03:03:04;10.57;;;8.40;;
8421;SDS011;4248;48.196;10.924;2022-08-24T03:05:32;12.10;;;8.93;;
8421;SDS011;4248;48.196;10.924;2022-08-24T03:07:58;12.07;;;8.50;;
8421;SDS011;4248;48.196;10.924;2022-08-24T03:10:24;10.80;;;7.97;;
8421;SDS011;4248;48.196;10.924;2022-08-24T03:12:50;12.40;;;8.00;;
8421;SDS011;4248;48.196;10.924;2022-08-24T03:15:16;12.40;;;7.33;;
8421;SDS011;4248;48.196;10.924;2022-08-24T03:17:42;12.10;;;8.00;;
8421;SDS011;4248;48.196;10.924;2022-08-24T03:20:10;10.27;;;7.67;;
8421;SDS011;4248;48.196;10.924;2022-08-24T03:22:37;16.60;;;8.23;;
8421;SDS011;4248;48.196;10.924;2022-08-24T03:25:04;15.70;;;9.53;;
8421;SDS011;4248;48.196;10.924;2022-08-24T03:27:30;11.70;;;8.10;;
8421;SDS011;4248;48.196;10.924;2022-08-24T03:29:56;12.97;;;8.40;;
8421;SDS011;4248;48.196;10.924;2022-08-24T03:32:22;11.70;;;7.10;;
8421;SDS011;4248;48.196;10.924;2022-08-24T03:34:48;14.67;;;8.20;;
8421;SDS011;4248;48.196;10.924;2022-08-24T03:37:14;10.27;;;7.80;;
8421;SDS011;4248;48.196;10.924;2022-08-24T03:39:40;14.33;;;8.57;;
8421;SDS011;4248;48.196;10.924;2022-08-24T03:42:06;16.63;;;7.67;;
8421;SDS011;4248;48.196;10.924;2022-08-24T03:44:31;11.13;;;7.00;;
8421;SDS011;4248;48.196;10.924;2022-08-24T03:46:57;15.07;;;7.67;;
8421;SDS011;4248;48.196;10.924;2022-08-24T03:49:24;13.50;;;7.37;;
8421;SDS011;4248;48.196;10.924;2022-08-24T03:51:49;9.73;;;7.70;;
8421;SDS011;4248;48.196;10.924;2022-08-24T03:54:15;9.70;;;8.10;;
8421;SDS011;4248;48.196;10.924;2022-08-24T03:56:41;14.20;;;7.97;;
8421;SDS011;4248;48.196;10.924;2022-08-24T03:59:08;7.87;;;6.57;;
8421;SDS011;4248;48.196;10.924;2022-08-24T04:01:34;9.03;;;6.70;;
8421;SDS011;4248;48.196;10.924;2022-08-24T04:04:01;9.83;;;6.43;;
8421;SDS011;4248;48.196;10.924;2022-08-24T04:06:27;9.47;;;6.10;;
8421;SDS011;4248;48.196;10.924;2022-08-24T04:08:53;12.33;;;6.60;;
8421;SDS011;4248;48.196;10.924;2022-08-24T04:11:20;8.03;;;6.57;;
8421;SDS011;4248;48.196;10.924;2022-08-24T04:13:48;8.53;;;6.30;;
8421;SDS011;4248;48.196;10.924;2022-08-24T04:16:16;10.67;;;6.43;;
8421;SDS011;4248;48.196;10.924;2022-08-24T04:18:44;16.60;;;7.47;;
8421;SDS011;4248;48.196;10.924;2022-08-24T04:23:49;11.70;;;7.30;;
8421;SDS011;4248;48.196;10.924;2022-08-24T04:26:17;10.67;;;8.10;;
8421;SDS011;4248;48.196;10.924;2022-08-24T04:28:43;11.17;;;8.13;;
8421;SDS011;4248;48.196;10.924;2022-08-24T04:31:09;12.90;;;8.90;;
8421;SDS011;4248;48.196;10.924;2022-08-24T04:33:38;13.07;;;8.20;;
8421;SDS011;4248;48.196;10.924;2022-08-24T04:36:07;23.40;;;9.60;;
8421;SDS011;4248;48.196;10.924;2022-08-24T04:38:34;11.37;;;8.27;;
8421;SDS011;4248;48.196;10.924;2022-08-24T04:41:04;14.53;;;9.10;;
8421;SDS011;4248;48.196;10.924;2022-08-24T04:43:31;14.27;;;8.00;;
8421;SDS011;4248;48.196;10.924;2022-08-24T04:45:58;12.23;;;8.97;;
8421;SDS011;4248;48.196;10.924;2022-08-24T04:48:24;11.10;;;8.13;;
8421;SDS011;4248;48.196;10.924;2022-08-24T04:50:50;13.67;;;7.80;;
8421;SDS011;4248;48.196;10.924;2022-08-24T04:53:17;9.90;;;7.83;;
8421;SDS011;4248;48.196;10.924;2022-08-24T04:55:44;8.77;;;7.47;;
8421;SDS011;4248;48.196;10.924;2022-08-24T04:58:13;9.20;;;7.37;;
8421;SDS011;4248;48.196;10.924;2022-08-24T05:00:39;11.53;;;6.87;;
8421;SDS011;4248;48.196;10.924;2022-08-24T05:03:06;9.00;;;7.03;;
8421;SDS011;4248;48.196;10.924;2022-08-24T05:05:32;8.67;;;6.70;;
8421;SDS011;4248;48.196;10.924;2022-08-24T05:07:58;13.57;;;8.13;;
8421;SDS011;4248;48.196;10.924;2022-08-24T05:10:24;12.17;;;7.70;;
8421;SDS011;4248;48.196;10.924;2022-08-24T05:12:50;19.53;;;8.30;;
8421;SDS011;4248;48.196;10.924;2022-08-24T05:15:16;10.80;;;8.30;;
8421;SDS011;4248;48.196;10.924;2022-08-24T05:17:42;16.40;;;7.73;;
8421;SDS011;4248;48.196;10.924;2022-08-24T05:20:10;9.90;;;7.20;;
8421;SDS011;4248;48.196;10.924;2022-08-24T05:22:36;11.07;;;8.03;;
8421;SDS011;4248;48.196;10.924;2022-08-24T05:25:05;11.17;;;7.07;;
8421;SDS011;4248;48.196;10.924;2022-08-24T05:27:34;10.07;;;5.37;;
8421;SDS011;4248;48.196;10.924;2022-08-24T05:30:00;5.30;;;4.40;;
8421;SDS011;4248;48.196;10.924;2022-08-24T05:32:27;9.23;;;4.87;;
8421;SDS011;4248;48.196;10.924;2022-08-24T05:34:52;8.13;;;4.90;;
8421;SDS011;4248;48.196;10.924;2022-08-24T05:37:18;6.90;;;4.13;;
8421;SDS011;4248;48.196;10.924;2022-08-24T05:39:43;6.20;;;4.40;;
8421;SDS011;4248;48.196;10.924;2022-08-24T05:42:09;9.43;;;4.13;;
8421;SDS011;4248;48.196;10.924;2022-08-24T05:44:35;5.40;;;3.60;;
8421;SDS011;4248;48.196;10.924;2022-08-24T05:47:01;10.10;;;5.30;;
8421;SDS011;4248;48.196;10.924;2022-08-24T05:49:27;15.60;;;4.50;;
8421;SDS011;4248;48.196;10.924;2022-08-24T05:51:53;14.33;;;4.53;;
8421;SDS011;4248;48.196;10.924;2022-08-24T05:54:19;11.73;;;4.20;;
8421;SDS011;4248;48.196;10.924;2022-08-24T05:56:46;7.70;;;3.80;;
8421;SDS011;4248;48.196;10.924;2022-08-24T05:59:13;14.30;;;4.00;;
8421;SDS011;4248;48.196;10.924;2022-08-24T06:01:41;9.30;;;3.77;;
8421;SDS011;4248;48.196;10.924;2022-08-24T06:04:07;7.37;;;3.97;;
8421;SDS011;4248;48.196;10.924;2022-08-24T06:06:33;6.10;;;3.60;;
8421;SDS011;4248;48.196;10.924;2022-08-24T06:08:59;6.83;;;3.33;;
8421;SDS011;4248;48.196;10.924;2022-08-24T06:11:30;7.03;;;3.73;;
8421;SDS011;4248;48.196;10.924;2022-08-24T06:14:04;7.10;;;3.50;;
8421;SDS011;4248;48.196;10.924;2022-08-24T06:16:33;4.17;;;2.73;;
8421;SDS011;4248;48.196;10.924;2022-08-24T06:19:00;8.97;;;3.20;;
8421;SDS011;4248;48.196;10.924;2022-08-24T06:21:26;7.17;;;3.40;;
8421;SDS011;4248;48.196;10.924;2022-08-24T06:23:53;7.90;;;3.17;;
8421;SDS011;4248;48.196;10.924;2022-08-24T06:26:20;9.30;;;3.70;;
8421;SDS011;4248;48.196;10.924;2022-08-24T06:29:05;7.23;;;3.00;;
8421;SDS011;4248;48.196;10.924;2022-08-24T06:31:38;6.37;;;3.50;;
8421;SDS011;4248;48.196;10.924;2022-08-24T06:34:06;16.77;;;4.80;;
8421;SDS011;4248;48.196;10.924;2022-08-24T06:36:36;7.33;;;3.90;;
8421;SDS011;4248;48.196;10.924;2022-08-24T06:39:02;8.53;;;3.93;;
8421;SDS011;4248;48.196;10.924;2022-08-24T06:41:28;7.53;;;3.87;;
8421;SDS011;4248;48.196;10.924;2022-08-24T06:43:54;6.50;;;3.53;;
8421;SDS011;4248;48.196;10.924;2022-08-24T06:46:19;11.07;;;3.53;;
8421;SDS011;4248;48.196;10.924;2022-08-24T06:48:45;10.83;;;3.90;;
8421;SDS011;4248;48.196;10.924;2022-08-24T06:51:12;10.70;;;4.00;;
8421;SDS011;4248;48.196;10.924;2022-08-24T06:53:40;10.70;;;4.60;;
8421;SDS011;4248;48.196;10.924;2022-08-24T06:56:06;6.00;;;4.00;;
8421;SDS011;4248;48.196;10.924;2022-08-24T06:58:32;8.63;;;3.90;;
8421;SDS011;4248;48.196;10.924;2022-08-24T07:01:16;10.70;;;4.80;;
8421;SDS011;4248;48.196;10.924;2022-08-24T07:03:43;6.43;;;4.30;;
8421;SDS011;4248;48.196;10.924;2022-08-24T07:06:09;8.17;;;4.47;;
8421;SDS011;4248;48.196;10.924;2022-08-24T07:08:36;8.33;;;4.10;;
8421;SDS011;4248;48.196;10.924;2022-08-24T07:11:03;9.77;;;5.07;;
8421;SDS011;4248;48.196;10.924;2022-08-24T07:13:30;13.30;;;4.57;;
8421;SDS011;4248;48.196;10.924;2022-08-24T07:15:56;8.20;;;4.80;;
8421;SDS011;4248;48.196;10.924;2022-08-24T07:18:23;7.53;;;5.03;;
8421;SDS011;4248;48.196;10.924;2022-08-24T07:20:48;7.43;;;5.07;;
8421;SDS011;4248;48.196;10.924;2022-08-24T07:23:15;15.43;;;5.27;;
8421;SDS011;4248;48.196;10.924;2022-08-24T07:25:42;12.00;;;5.63;;
8421;SDS011;4248;48.196;10.924;2022-08-24T07:28:09;10.47;;;4.57;;
8421;SDS011;4248;48.196;10.924;2022-08-24T07:30:35;10.40;;;5.00;;
8421;SDS011;4248;48.196;10.924;2022-08-24T07:33:02;6.60;;;5.10;;
8421;SDS011;4248;48.196;10.924;2022-08-24T07:35:28;10.73;;;5.60;;
8421;SDS011;4248;48.196;10.924;2022-08-24T07:37:56;7.40;;;4.90;;
8421;SDS011;4248;48.196;10.924;2022-08-24T07:40:23;10.53;;;5.17;;
8421;SDS011;4248;48.196;10.924;2022-08-24T07:42:51;10.13;;;5.50;;
8421;SDS011;4248;48.196;10.924;2022-08-24T07:45:19;10.03;;;4.70;;
8421;SDS011;4248;48.196;10.924;2022-08-24T07:47:48;6.20;;;4.73;;
8421;SDS011;4248;48.196;10.924;2022-08-24T07:50:14;10.90;;;5.13;;
8421;SDS011;4248;48.196;10.924;2022-08-24T07:52:41;8.07;;;4.30;;
8421;SDS011;4248;48.196;10.924;2022-08-24T07:55:07;9.13;;;4.90;;
8421;SDS011;4248;48.196;10.924;2022-08-24T07:57:35;7.00;;;4.90;;
8421;SDS011;4248;48.196;10.924;2022-08-24T08:00:03;8.40;;;4.90;;
8421;SDS011;4248;48.196;10.924;2022-08-24T08:02:31;16.43;;;5.10;;
8421;SDS011;4248;48.196;10.924;2022-08-24T08:04:58;10.13;;;5.00;;
8421;SDS011;4248;48.196;10.924;2022-08-24T08:07:24;7.27;;;4.60;;
8421;SDS011;4248;48.196;10.924;2022-08-24T08:09:50;6.00;;;4.07;;
8421;SDS011;4248;48.196;10.924;2022-08-24T08:12:16;9.10;;;5.10;;
8421;SDS011;4248;48.196;10.924;2022-08-24T08:14:43;7.17;;;4.43;;
8421;SDS011;4248;48.196;10.924;2022-08-24T08:17:09;8.20;;;4.03;;
8421;SDS011;4248;48.196;10.924;2022-08-24T08:19:35;11.70;;;4.17;;
8421;SDS011;4248;48.196;10.924;2022-08-24T08:22:01;7.30;;;3.80;;
8421;SDS011;4248;48.196;10.924;2022-08-24T08:24:45;6.47;;;3.70;;
8421;SDS011;4248;48.196;10.924;2022-08-24T08:27:11;11.37;;;4.17;;
8421;SDS011;4248;48.196;10.924;2022-08-24T08:29:40;5.73;;;4.20;;
8421;SDS011;4248;48.196;10.924;2022-08-24T08:32:07;8.00;;;3.90;;
8421;SDS011;4248;48.196;10.924;2022-08-24T08:34:34;9.30;;;4.63;;
8421;SDS011;4248;48.196;10.924;2022-08-24T08:36:59;8.53;;;3.27;;
8421;SDS011;4248;48.196;10.924;2022-08-24T08:39:26;7.43;;;4.30;;
8421;SDS011;4248;48.196;10.924;2022-08-24T08:47:34;12.23;;;4.27;;
8421;SDS011;4248;48.196;10.924;2022-08-24T09:00:21;11.80;;;4.57;;
8421;SDS011;4248;48.196;10.924;2022-08-24T09:02:59;7.30;;;4.33;;
8421;SDS011;4248;48.196;10.924;2022-08-24T09:08:26;5.77;;;3.80;;
8421;SDS011;4248;48.196;10.924;2022-08-24T09:17:10;8.90;;;4.10;;
8421;SDS011;4248;48.196;10.924;2022-08-24T09:22:16;7.70;;;4.37;;
8421;SDS011;4248;48.196;10.924;2022-08-24T09:24:49;6.27;;;3.90;;
8421;SDS011;4248;48.196;10.924;2022-08-24T09:27:22;10.30;;;4.27;;
8421;SDS011;4248;48.196;10.924;2022-08-24T09:30:09;10.60;;;4.10;;
8421;SDS011;4248;48.196;10.924;2022-08-24T09:41:22;6.77;;;2.97;;
8421;SDS011;4248;48.196;10.924;2022-08-24T09:47:11;4.97;;;2.70;;
8421;SDS011;4248;48.196;10.924;2022-08-24T09:55:43;7.70;;;3.13;;
8421;SDS011;4248;48.196;10.924;2022-08-24T10:01:09;6.83;;;3.60;;
8421;SDS011;4248;48.196;10.924;2022-08-24T10:06:23;8.93;;;3.10;;
8421;SDS011;4248;48.196;10.924;2022-08-24T10:09:02;5.80;;;3.40;;
8421;SDS011;4248;48.196;10.924;2022-08-24T10:17:21;4.90;;;2.97;;
8421;SDS011;4248;48.196;10.924;2022-08-24T10:20:06;7.57;;;2.93;;
8421;SDS011;4248;48.196;10.924;2022-08-24T10:30:31;7.60;;;3.50;;
8421;SDS011;4248;48.196;10.924;2022-08-24T10:41:34;5.93;;;3.77;;
8421;SDS011;4248;48.196;10.924;2022-08-24T10:47:10;4.20;;;3.07;;
8421;SDS011;4248;48.196;10.924;2022-08-24T10:55:37;8.97;;;3.63;;
8421;SDS011;4248;48.196;10.924;2022-08-24T10:58:09;6.67;;;3.47;;
8421;SDS011;4248;48.196;10.924;2022-08-24T11:00:46;3.80;;;2.57;;
8421;SDS011;4248;48.196;10.924;2022-08-24T11:03:17;5.73;;;2.70;;
8421;SDS011;4248;48.196;10.924;2022-08-24T11:05:50;7.33;;;3.37;;
8421;SDS011;4248;48.196;10.924;2022-08-24T11:08:20;8.03;;;2.80;;
8421;SDS011;4248;48.196;10.924;2022-08-24T11:11:02;4.87;;;3.00;;
8421;SDS011;4248;48.196;10.924;2022-08-24T11:13:34;5.43;;;3.77;;
8421;SDS011;4248;48.196;10.924;2022-08-24T11:16:02;8.23;;;2.57;;
8421;SDS011;4248;48.196;10.924;2022-08-24T11:18:45;9.43;;;2.80;;
8421;SDS011;4248;48.196;10.924;2022-08-24T11:21:18;4.50;;;2.23;;
8421;SDS011;4248;48.196;10.924;2022-08-24T11:24:08;8.80;;;2.53;;
8421;SDS011;4248;48.196;10.924;2022-08-24T11:29:19;6.17;;;3.13;;
8421;SDS011;4248;48.196;10.924;2022-08-24T11:31:47;4.40;;;2.80;;
8421;SDS011;4248;48.196;10.924;2022-08-24T11:34:16;5.10;;;2.83;;
8421;SDS011;4248;48.196;10.924;2022-08-24T11:36:59;6.97;;;2.60;;
8421;SDS011;4248;48.196;10.924;2022-08-24T11:39:35;5.80;;;2.97;;
8421;SDS011;4248;48.196;10.924;2022-08-24T11:42:18;4.20;;;2.73;;
8421;SDS011;4248;48.196;10.924;2022-08-24T11:50:40;7.50;;;3.03;;
8421;SDS011;4248;48.196;10.924;2022-08-24T12:02:26;5.90;;;3.13;;
8421;SDS011;4248;48.196;10.924;2022-08-24T12:05:10;5.40;;;3.10;;
8421;SDS011;4248;48.196;10.924;2022-08-24T12:16:08;6.60;;;2.20;;
8421;SDS011;4248;48.196;10.924;2022-08-24T12:21:06;6.70;;;2.90;;
8421;SDS011;4248;48.196;10.924;2022-08-24T12:23:36;5.87;;;2.40;;
8421;SDS011;4248;48.196;10.924;2022-08-24T12:26:04;3.20;;;2.00;;
8421;SDS011;4248;48.196;10.924;2022-08-24T12:28:36;4.67;;;2.83;;
8421;SDS011;4248;48.196;10.924;2022-08-24T12:31:11;5.10;;;2.53;;
8421;SDS011;4248;48.196;10.924;2022-08-24T12:33:44;5.03;;;2.40;;
8421;SDS011;4248;48.196;10.924;2022-08-24T12:36:27;8.13;;;2.60;;
8421;SDS011;4248;48.196;10.924;2022-08-24T12:39:06;4.50;;;2.80;;
8421;SDS011;4248;48.196;10.924;2022-08-24T12:44:52;2.70;;;1.90;;
8421;SDS011;4248;48.196;10.924;2022-08-24T12:47:40;5.23;;;2.67;;
8421;SDS011;4248;48.196;10.924;2022-08-24T12:50:40;6.37;;;2.80;;
8421;SDS011;4248;48.196;10.924;2022-08-24T12:56:19;5.53;;;2.83;;
8421;SDS011;4248;48.196;10.924;2022-08-24T12:59:22;4.10;;;2.77;;
8421;SDS011;4248;48.196;10.924;2022-08-24T13:20:25;10.73;;;3.33;;
8421;SDS011;4248;48.196;10.924;2022-08-24T13:33:49;4.53;;;2.27;;
8421;SDS011;4248;48.196;10.924;2022-08-24T13:37:03;5.70;;;2.30;;
8421;SDS011;4248;48.196;10.924;2022-08-24T13:39:24;5.23;;;2.20;;
8421;SDS011;4248;48.196;10.924;2022-08-24T13:42:07;3.67;;;2.37;;
8421;SDS011;4248;48.196;10.924;2022-08-24T13:50:41;4.30;;;2.33;;
8421;SDS011;4248;48.196;10.924;2022-08-24T14:02:06;5.20;;;2.23;;
8421;SDS011;4248;48.196;10.924;2022-08-24T14:04:51;4.80;;;2.53;;
8421;SDS011;4248;48.196;10.924;2022-08-24T14:20:53;3.57;;;2.23;;
8421;SDS011;4248;48.196;10.924;2022-08-24T14:37:04;7.37;;;2.40;;
8421;SDS011;4248;48.196;10.924;2022-08-24T14:39:54;3.73;;;2.27;;
8421;SDS011;4248;48.196;10.924;2022-08-24T14:42:37;4.00;;;2.13;;
8421;SDS011;4248;48.196;10.924;2022-08-24T14:45:46;5.50;;;2.37;;
8421;SDS011;4248;48.196;10.924;2022-08-24T15:08:12;4.00;;;2.50;;
8421;SDS011;4248;48.196;10.924;2022-08-24T15:11:10;4.30;;;2.50;;
8421;SDS011;4248;48.196;10.924;2022-08-24T15:13:43;3.60;;;2.10;;
8421;SDS011;4248;48.196;10.924;2022-08-24T15:16:12;2.83;;;1.70;;
8421;SDS011;4248;48.196;10.924;2022-08-24T15:21:09;3.50;;;1.97;;
8421;SDS011;4248;48.196;10.924;2022-08-24T15:26:41;3.67;;;2.53;;
8421;SDS011;4248;48.196;10.924;2022-08-24T15:29:31;3.00;;;1.70;;
8421;SDS011;4248;48.196;10.924;2022-08-24T15:32:03;4.70;;;2.27;;
8421;SDS011;4248;48.196;10.924;2022-08-24T15:34:35;3.30;;;1.80;;
8421;SDS011;4248;48.196;10.924;2022-08-24T15:37:09;4.30;;;2.30;;
8421;SDS011;4248;48.196;10.924;2022-08-24T15:39:36;4.77;;;2.20;;
8421;SDS011;4248;48.196;10.924;2022-08-24T15:42:06;5.43;;;2.30;;
8421;SDS011;4248;48.196;10.924;2022-08-24T15:44:35;4.50;;;2.60;;
8421;SDS011;4248;48.196;10.924;2022-08-24T15:47:02;6.43;;;1.87;;
8421;SDS011;4248;48.196;10.924;2022-08-24T15:49:44;2.83;;;1.70;;
8421;SDS011;4248;48.196;10.924;2022-08-24T15:52:36;4.03;;;2.13;;
8421;SDS011;4248;48.196;10.924;2022-08-24T15:54:57;4.43;;;2.00;;
8421;SDS011;4248;48.196;10.924;2022-08-24T15:57:26;7.00;;;1.93;;
8421;SDS011;4248;48.196;10.924;2022-08-24T16:00:07;5.00;;;2.53;;
8421;SDS011;4248;48.196;10.924;2022-08-24T16:02:37;4.30;;;2.10;;
8421;SDS011;4248;48.196;10.924;2022-08-24T16:05:17;4.70;;;1.93;;
8421;SDS011;4248;48.196;10.924;2022-08-24T16:18:21;3.93;;;1.70;;
8421;SDS011;4248;48.196;10.924;2022-08-24T16:20:49;2.43;;;1.50;;
8421;SDS011;4248;48.196;10.924;2022-08-24T16:23:22;2.60;;;1.57;;
8421;SDS011;4248;48.196;10.924;2022-08-24T16:26:16;6.37;;;1.90;;
8421;SDS011;4248;48.196;10.924;2022-08-24T16:28:48;4.80;;;1.80;;
8421;SDS011;4248;48.196;10.924;2022-08-24T16:34:19;3.33;;;1.60;;
8421;SDS011;4248;48.196;10.924;2022-08-24T16:36:47;5.20;;;1.70;;
8421;SDS011;4248;48.196;10.924;2022-08-24T16:39:13;5.53;;;1.90;;
8421;SDS011;4248;48.196;10.924;2022-08-24T16:41:40;5.00;;;1.90;;
8421;SDS011;4248;48.196;10.924;2022-08-24T16:44:07;5.07;;;2.00;;
8421;SDS011;4248;48.196;10.924;2022-08-24T16:46:34;4.60;;;1.80;;
8421;SDS011;4248;48.196;10.924;2022-08-24T16:49:00;3.40;;;1.80;;
8421;SDS011;4248;48.196;10.924;2022-08-24T16:51:26;3.60;;;2.07;;
8421;SDS011;4248;48.196;10.924;2022-08-24T16:53:52;3.90;;;1.90;;
8421;SDS011;4248;48.196;10.924;2022-08-24T16:56:18;3.90;;;1.43;;
8421;SDS011;4248;48.196;10.924;2022-08-24T16:58:45;5.33;;;2.30;;
8421;SDS011;4248;48.196;10.924;2022-08-24T17:01:11;2.70;;;1.77;;
8421;SDS011;4248;48.196;10.924;2022-08-24T17:03:38;3.63;;;1.67;;
8421;SDS011;4248;48.196;10.924;2022-08-24T17:06:04;3.63;;;2.07;;
8421;SDS011;4248;48.196;10.924;2022-08-24T17:08:30;3.67;;;1.83;;
8421;SDS011;4248;48.196;10.924;2022-08-24T17:10:56;3.33;;;1.80;;
8421;SDS011;4248;48.196;10.924;2022-08-24T17:13:22;3.77;;;1.93;;
8421;SDS011;4248;48.196;10.924;2022-08-24T17:15:48;2.83;;;1.53;;
8421;SDS011;4248;48.196;10.924;2022-08-24T17:18:15;4.30;;;1.83;;
8421;SDS011;4248;48.196;10.924;2022-08-24T17:20:44;3.53;;;1.80;;
8421;SDS011;4248;48.196;10.924;2022-08-24T17:23:10;3.43;;;1.90;;
8421;SDS011;4248;48.196;10.924;2022-08-24T17:25:36;5.00;;;2.00;;
8421;SDS011;4248;48.196;10.924;2022-08-24T17:28:04;8.30;;;2.30;;
8421;SDS011;4248;48.196;10.924;2022-08-24T17:30:30;6.43;;;2.00;;
8421;SDS011;4248;48.196;10.924;2022-08-24T17:32:56;3.70;;;2.57;;
8421;SDS011;4248;48.196;10.924;2022-08-24T17:35:23;5.73;;;2.30;;
8421;SDS011;4248;48.196;10.924;2022-08-24T17:37:49;3.63;;;2.23;;
8421;SDS011;4248;48.196;10.924;2022-08-24T17:40:18;5.83;;;2.47;;
8421;SDS011;4248;48.196;10.924;2022-08-24T17:42:47;4.10;;;2.60;;
8421;SDS011;4248;48.196;10.924;2022-08-24T17:45:13;3.60;;;2.10;;
8421;SDS011;4248;48.196;10.924;2022-08-24T17:47:39;5.07;;;2.47;;
8421;SDS011;4248;48.196;10.924;2022-08-24T17:50:07;3.93;;;2.20;;
8421;SDS011;4248;48.196;10.924;2022-08-24T17:52:34;3.33;;;2.00;;
8421;SDS011;4248;48.196;10.924;2022-08-24T17:55:03;4.97;;;2.30;;
8421;SDS011;4248;48.196;10.924;2022-08-24T17:57:29;3.33;;;1.93;;
8421;SDS011;4248;48.196;10.924;2022-08-24T17:59:55;8.63;;;2.40;;
8421;SDS011;4248;48.196;10.924;2022-08-24T18:02:21;6.47;;;2.20;;
8421;SDS011;4248;48.196;10.924;2022-08-24T18:04:47;10.43;;;1.97;;
8421;SDS011;4248;48.196;10.924;2022-08-24T18:07:13;6.03;;;2.20;;
8421;SDS011;4248;48.196;10.924;2022-08-24T18:12:11;6.00;;;2.60;;
8421;SDS011;4248;48.196;10.924;2022-08-24T18:14:37;8.53;;;2.50;;
8421;SDS011;4248;48.196;10.924;2022-08-24T18:17:04;5.20;;;2.20;;
8421;SDS011;4248;48.196;10.924;2022-08-24T18:19:33;5.70;;;2.23;;
8421;SDS011;4248;48.196;10.924;2022-08-24T18:22:00;4.60;;;2.17;;
8421;SDS011;4248;48.196;10.924;2022-08-24T18:24:28;8.10;;;2.63;;
8421;SDS011;4248;48.196;10.924;2022-08-24T18:27:02;6.80;;;2.60;;
8421;SDS011;4248;48.196;10.924;2022-08-24T18:29:30;8.83;;;5.30;;
8421;SDS011;4248;48.196;10.924;2022-08-24T18:31:57;5.17;;;2.77;;
8421;SDS011;4248;48.196;10.924;2022-08-24T18:34:23;4.30;;;3.00;;
8421;SDS011;4248;48.196;10.924;2022-08-24T18:36:49;7.70;;;2.57;;
8421;SDS011;4248;48.196;10.924;2022-08-24T18:39:15;7.80;;;2.63;;
8421;SDS011;4248;48.196;10.924;2022-08-24T18:41:42;5.40;;;2.77;;
8421;SDS011;4248;48.196;10.924;2022-08-24T18:44:09;4.73;;;2.60;;
8421;SDS011;4248;48.196;10.924;2022-08-24T18:46:37;4.37;;;2.40;;
8421;SDS011;4248;48.196;10.924;2022-08-24T18:49:03;10.50;;;2.33;;
8421;SDS011;4248;48.196;10.924;2022-08-24T18:51:30;4.33;;;2.50;;
8421;SDS011;4248;48.196;10.924;2022-08-24T18:54:15;5.70;;;2.60;;
8421;SDS011;4248;48.196;10.924;2022-08-24T18:56:43;5.40;;;2.33;;
8421;SDS011;4248;48.196;10.924;2022-08-24T18:59:12;6.90;;;2.70;;
8421;SDS011;4248;48.196;10.924;2022-08-24T19:01:41;4.80;;;2.57;;
8421;SDS011;4248;48.196;10.924;2022-08-24T19:04:46;6.20;;;2.83;;